WetterOnline ( https://www.wetteronline.at )

Wetter aktuell Brocken

Aktuelles Wetter: Brocken (1141m)

6-stündlich | Neueste Meldungen
Ortszeit Temperatur Wetter
Mi, 30.11. 7:00 0.6° C Nebel
Mi, 30.11. 1:00 0.5° C Nebel
Di, 29.11. 19:00 0.3° C Nebel
Di, 29.11. 13:00 1.1° C Nebel
Di, 29.11. 7:00 0.4° C Nebel
Di, 29.11. 1:00 0.9° C Nebel
Mo, 28.11. 19:00 1.8° C Nebel
Mo, 28.11. 13:00 2.4° C bewölkt
Ortszeit Temperatur Wetter
Mi, 30.11. 8:30 0.3° C Nebel
Mi, 30.11. 8:20 0.3° C Nebel
Mi, 30.11. 8:10 0.3° C Nebel
Mi, 30.11. 8:00 0.3° C Nebel
Mi, 30.11. 7:50 0.3° C Nebel
Mi, 30.11. 7:40 0.4° C Nebel
Mi, 30.11. 7:30 0.6° C Nebel
Mi, 30.11. 7:00 0.6° C Nebel
Mi, 30.11. 6:30 0.7° C Nebel
Mi, 30.11. 6:00 0.6° C Nebel
Mi, 30.11. 5:30 0.6° C Nebel
Ortszeit Relative Feuchte Sichtweite
Mi, 30.11. 7:00 100% <100 m
Mi, 30.11. 1:00 100% <100 m
Di, 29.11. 19:00 100% 100 m
Di, 29.11. 13:00 100% <100 m
Di, 29.11. 7:00 99% 100 m
Di, 29.11. 1:00 100% <100 m
Mo, 28.11. 19:00 100% <100 m
Mo, 28.11. 13:00 77% 65 km
Ortszeit Relative Feuchte Sichtweite
Mi, 30.11. 8:30 100% <100 m
Mi, 30.11. 8:20 100% -
Mi, 30.11. 8:10 100% -
Mi, 30.11. 8:00 100% <100 m
Mi, 30.11. 7:50 100% -
Mi, 30.11. 7:40 100% -
Mi, 30.11. 7:30 100% <100 m
Mi, 30.11. 7:00 100% <100 m
Mi, 30.11. 6:30 99% 100 m
Mi, 30.11. 6:00 99% <100 m
Mi, 30.11. 5:30 99% <100 m
Ortszeit Niederschlagsmenge Niederschlagsart
Mi, 30.11. 7:00 0.0 l/m2 in 12 Std. -
Mi, 30.11. 1:00 0.0 l/m2 in 6 Std. -
Di, 29.11. 19:00 0.0 l/m2 in 12 Std. -
Di, 29.11. 13:00 0.0 l/m2 in 6 Std. -
Di, 29.11. 7:00 0.0 l/m2 in 12 Std. -
Di, 29.11. 1:00 0.0 l/m2 in 6 Std. -
Mo, 28.11. 19:00 0.0 l/m2 in 12 Std. -
Mo, 28.11. 13:00 0.0 l/m2 in 6 Std. -
Ortszeit Niederschlagsmenge Niederschlagsart
Mi, 30.11. 8:30 0.1 l/m2 in 1 Std. -
Mi, 30.11. 8:20 keine Meldung -
Mi, 30.11. 8:10 keine Meldung -
Mi, 30.11. 8:00 0.0 l/m2 in 1 Std. -
Mi, 30.11. 7:50 keine Meldung -
Mi, 30.11. 7:40 keine Meldung -
Mi, 30.11. 7:30 0.0 l/m2 in 1 Std. -
Mi, 30.11. 7:00 0.0 l/m2 in 1 Std. -
Mi, 30.11. 6:30 0.0 l/m2 in 1 Std. -
Mi, 30.11. 6:00 0.0 l/m2 in 1 Std. -
Mi, 30.11. 5:30 0.0 l/m2 in 1 Std. -
Ortszeit Stärke Spitze Richtung
km/h Bft. km/h Grad Sektor
Mi, 30.11. 7:00 7 2 11 200° S
Mi, 30.11. 1:00 4 1 14 260° W
Di, 29.11. 19:00 11 2 18 350° N
Di, 29.11. 13:00 7 2 18 350° N
Di, 29.11. 7:00 7 2 14 20° N
Di, 29.11. 1:00 13 3 30 220° SW
Mo, 28.11. 19:00 19 3 54 230° SW
Mo, 28.11. 13:00 44 6 56 210° SW
Ortszeit Stärke Spitze Richtung
km/h Bft. km/h Grad Sektor
Mi, 30.11. 8:30 13 3 15 190° S
Mi, 30.11. 8:20 13 3 - 190° S
Mi, 30.11. 8:10 11 2 - 190° S
Mi, 30.11. 8:00 11 2 13 190° S
Mi, 30.11. 7:50 11 2 - 190° S
Mi, 30.11. 7:40 9 2 - 180° S
Mi, 30.11. 7:30 7 2 9 190° S
Mi, 30.11. 7:00 7 2 7 200° S
Mi, 30.11. 6:30 4 1 7 250° W
Mi, 30.11. 6:00 6 1 6 230° SW
Mi, 30.11. 5:30 4 1 7 210° SW
Ortszeit Untergrenze Bedeckung Gattung
total tief tief mittel hoch
Mi, 30.11. 7:00 <30 m 8/8 0/8 - - -
Mi, 30.11. 1:00 <30 m 8/8 0/8 - - -
Di, 29.11. 19:00 <30 m 8/8 0/8 - - -
Di, 29.11. 13:00 <30 m 8/8 0/8 - - -
Di, 29.11. 7:00 <30 m 8/8 0/8 - - -
Di, 29.11. 1:00 <30 m 8/8 0/8 - - -
Mo, 28.11. 19:00 <30 m 8/8 0/8 - - -
Mo, 28.11. 13:00 1500 m 7/8 7/8 - - -
Ortszeit Bedeckungsgrad in Achtel und Wolkenuntergrenze
Mi, 30.11. 8:30 8(<30m)
Mi, 30.11. 8:20 8(<30m)
Mi, 30.11. 8:10 8
Mi, 30.11. 8:00 8(<30m)
Mi, 30.11. 7:50 8(<30m)
Mi, 30.11. 7:40 8
Mi, 30.11. 7:30 8(<30m)
Mi, 30.11. 7:00 8(<30m)
Mi, 30.11. 6:30 8(<30m)
Mi, 30.11. 6:00 8(<30m)
Mi, 30.11. 5:30 8(<30m)
Ortszeit Stationsdruck (hPa) Tendenz (hPa in 3 Std.)
Mi, 30.11. 7:00 887 + 0,6
Mi, 30.11. 1:00 886 + 0,5
Di, 29.11. 19:00 885 + 1,0
Di, 29.11. 13:00 884 + 0,8
Di, 29.11. 7:00 882 + 1,0
Di, 29.11. 1:00 881 + 0,2
Mo, 28.11. 19:00 880 + 0,3
Mo, 28.11. 13:00 880 - 0,6
Ortszeit Stationsdruck (hPa) Tendenz (hPa in 3 Std.)
Mi, 30.11. 8:30 888 + 0,9
Mi, 30.11. 8:20 888 keine Meldung
Mi, 30.11. 8:10 888 keine Meldung
Mi, 30.11. 8:00 887 + 0,8
Mi, 30.11. 7:50 887 keine Meldung
Mi, 30.11. 7:40 887 keine Meldung
Mi, 30.11. 7:30 887 + 0,7
Mi, 30.11. 7:00 887 + 0,6
Mi, 30.11. 6:30 887 + 0,5
Mi, 30.11. 6:00 887 + 0,2
Mi, 30.11. 5:30 887 + 0,3
Ortszeit Schneehöhe (cm)
Mi, 30.11. 7:00 0
Mi, 30.11. 1:00 0
Di, 29.11. 19:00 0
Di, 29.11. 13:00 0
Di, 29.11. 7:00 0
Di, 29.11. 1:00 0
Mo, 28.11. 19:00 0
Mo, 28.11. 13:00 0
Ortszeit Schneehöhe (cm)
Mi, 30.11. 8:30 0
Mi, 30.11. 8:20 0
Mi, 30.11. 8:10 0
Mi, 30.11. 8:00 0
Mi, 30.11. 7:50 0
Mi, 30.11. 7:40 0
Mi, 30.11. 7:30 0
Mi, 30.11. 7:00 0
Mi, 30.11. 6:30 0
Mi, 30.11. 6:00 0
Mi, 30.11. 5:30 0
Link zu dieser Seite / Seite empfehlen

Das Wetter in ...